This is the latest recevied weather packets stored in our database for station/object N2PUI. If no packets are shown the sender has not sent any weather packets the latest 10 day(s).
| Time | Temp. | Humidity | Pressure | Rain* | Wind** | Luminosity | Snow |
|---|---|---|---|---|---|---|---|
| 1778011896 | 15.56° C | 87% | 1007.7 hPa | 1.78 mm | - | 107 W/m² | - |
| 1778011593 | 15.56° C | 86% | 1007.9 hPa | 4.83 mm | - | 140 W/m² | - |
| 1778011290 | 16.11° C | 85% | 1008.1 hPa | 4.83 mm | - | 96 W/m² | - |
| 1778010986 | 16.11° C | 84% | 1008.6 hPa | 1.78 mm | - | 45 W/m² | - |
| 1778010684 | 16.11° C | 83% | 1008.3 hPa | 1.27 mm | - | 31 W/m² | - |
| 1778010381 | 16.67° C | 82% | 1008.1 hPa | 4.32 mm | - | 44 W/m² | - |
| 1778010076 | 17.78° C | 77% | 1007.6 hPa | 3.05 mm | - | 57 W/m² | - |
| 1778009774 | 21.11° C | 62% | 1007 hPa | 0 mm | - | 54 W/m² | - |
| 1778009470 | 22.78° C | 50% | 1006.1 hPa | 0 mm | - | 43 W/m² | - |
| 1778009169 | 23.33° C | 45% | 1005.8 hPa | 0 mm | - | 39 W/m² | - |
| 1778008866 | 23.89° C | 43% | 1005.5 hPa | 0 mm | - | 61 W/m² | - |
| 1778008564 | 23.89° C | 45% | 1005.5 hPa | 0 mm | - | 92 W/m² | - |
| 1778008262 | 23.89° C | 46% | 1005.4 hPa | 0 mm | - | 113 W/m² | - |
| 1778007957 | 23.89° C | 44% | 1005.4 hPa | 0 mm | - | 135 W/m² | - |
| 1778007652 | 23.89° C | 45% | 1005.3 hPa | 0 mm | - | 223 W/m² | - |
| 1778007349 | 23.89° C | 47% | 1005.4 hPa | 0 mm | - | 236 W/m² | - |
| 1778007046 | 23.89° C | 46% | 1005.4 hPa | 0 mm | - | 272 W/m² | - |
| 1778006743 | 23.89° C | 48% | 1005.1 hPa | 0 mm | - | 281 W/m² | - |
| 1778006440 | 24.44° C | 49% | 1005.3 hPa | 0 mm | - | 352 W/m² | - |
| 1778006136 | 23.89° C | 48% | 1005.5 hPa | 0 mm | - | 452 W/m² | - |
| 1778005834 | 23.89° C | 48% | 1005.8 hPa | 0 mm | - | 598 W/m² | - |
| 1778005530 | 23.89° C | 50% | 1005.8 hPa | 0 mm | - | 449 W/m² | - |
| 1778005226 | 23.33° C | 51% | 1005.7 hPa | 0 mm | - | 413 W/m² | - |
| 1778004923 | 21.11° C | 63% | 1005.9 hPa | 0 mm | - | 486 W/m² | - |
| 1778004621 | 20.56° C | 69% | 1005.9 hPa | 0 mm | - | 587 W/m² | - |
* Rain latest hour (hover to see other rain measurements)
** Current wind speed in m/s (hover to see current wind gust speed)